sensor_id;sensor_type;location;lat;lon;timestamp;P1;durP1;ratioP1;P2;durP2;ratioP2
8737;SDS011;4405;49.272;8.590;2022-10-16T00:01:53;1.50;;;1.50;;
8737;SDS011;4405;49.272;8.590;2022-10-16T00:04:19;3.53;;;1.40;;
8737;SDS011;4405;49.272;8.590;2022-10-16T00:06:46;1.50;;;1.43;;
8737;SDS011;4405;49.272;8.590;2022-10-16T00:09:12;2.77;;;1.30;;
8737;SDS011;4405;49.272;8.590;2022-10-16T00:11:39;3.43;;;1.27;;
8737;SDS011;4405;49.272;8.590;2022-10-16T00:14:06;3.30;;;1.30;;
8737;SDS011;4405;49.272;8.590;2022-10-16T00:16:34;1.73;;;1.40;;
8737;SDS011;4405;49.272;8.590;2022-10-16T00:19:01;1.20;;;1.20;;
8737;SDS011;4405;49.272;8.590;2022-10-16T00:21:28;1.83;;;1.30;;
8737;SDS011;4405;49.272;8.590;2022-10-16T00:23:55;4.73;;;1.40;;
8737;SDS011;4405;49.272;8.590;2022-10-16T00:26:22;2.60;;;1.40;;
8737;SDS011;4405;49.272;8.590;2022-10-16T00:28:49;1.50;;;1.33;;
8737;SDS011;4405;49.272;8.590;2022-10-16T00:31:16;1.53;;;1.33;;
8737;SDS011;4405;49.272;8.590;2022-10-16T00:33:44;1.17;;;1.17;;
8737;SDS011;4405;49.272;8.590;2022-10-16T00:36:11;1.53;;;1.33;;
8737;SDS011;4405;49.272;8.590;2022-10-16T00:38:37;1.40;;;1.30;;
8737;SDS011;4405;49.272;8.590;2022-10-16T00:41:04;2.57;;;1.30;;
8737;SDS011;4405;49.272;8.590;2022-10-16T00:43:38;5.73;;;1.30;;
8737;SDS011;4405;49.272;8.590;2022-10-16T00:46:05;1.23;;;1.23;;
8737;SDS011;4405;49.272;8.590;2022-10-16T00:48:35;1.30;;;1.20;;
8737;SDS011;4405;49.272;8.590;2022-10-16T00:51:02;3.70;;;1.50;;
8737;SDS011;4405;49.272;8.590;2022-10-16T00:53:29;3.17;;;1.30;;
8737;SDS011;4405;49.272;8.590;2022-10-16T00:55:56;2.57;;;1.30;;
8737;SDS011;4405;49.272;8.590;2022-10-16T00:58:22;1.43;;;1.33;;
8737;SDS011;4405;49.272;8.590;2022-10-16T01:00:49;3.50;;;1.40;;
8737;SDS011;4405;49.272;8.590;2022-10-16T01:03:23;2.20;;;1.83;;
8737;SDS011;4405;49.272;8.590;2022-10-16T01:05:51;1.43;;;1.33;;
8737;SDS011;4405;49.272;8.590;2022-10-16T01:08:24;1.43;;;1.43;;
8737;SDS011;4405;49.272;8.590;2022-10-16T01:10:54;6.83;;;1.50;;
8737;SDS011;4405;49.272;8.590;2022-10-16T01:13:24;2.50;;;1.30;;
8737;SDS011;4405;49.272;8.590;2022-10-16T01:15:53;3.50;;;1.43;;
8737;SDS011;4405;49.272;8.590;2022-10-16T01:18:23;3.43;;;1.37;;
8737;SDS011;4405;49.272;8.590;2022-10-16T01:20:54;2.93;;;1.30;;
8737;SDS011;4405;49.272;8.590;2022-10-16T01:23:33;2.47;;;1.47;;
8737;SDS011;4405;49.272;8.590;2022-10-16T01:26:11;3.70;;;1.40;;
8737;SDS011;4405;49.272;8.590;2022-10-16T01:28:41;1.60;;;1.20;;
8737;SDS011;4405;49.272;8.590;2022-10-16T01:31:09;3.43;;;1.60;;
8737;SDS011;4405;49.272;8.590;2022-10-16T01:33:38;3.10;;;1.50;;
8737;SDS011;4405;49.272;8.590;2022-10-16T01:36:06;2.40;;;1.30;;
8737;SDS011;4405;49.272;8.590;2022-10-16T01:38:35;2.33;;;1.30;;
8737;SDS011;4405;49.272;8.590;2022-10-16T01:41:04;2.73;;;1.50;;
8737;SDS011;4405;49.272;8.590;2022-10-16T01:43:33;3.40;;;1.40;;
8737;SDS011;4405;49.272;8.590;2022-10-16T01:46:02;4.97;;;1.60;;
8737;SDS011;4405;49.272;8.590;2022-10-16T01:48:28;1.50;;;1.40;;
8737;SDS011;4405;49.272;8.590;2022-10-16T01:50:56;1.50;;;1.40;;
8737;SDS011;4405;49.272;8.590;2022-10-16T01:53:24;2.83;;;1.37;;
8737;SDS011;4405;49.272;8.590;2022-10-16T01:55:52;1.27;;;1.23;;
8737;SDS011;4405;49.272;8.590;2022-10-16T01:58:20;1.27;;;1.27;;
8737;SDS011;4405;49.272;8.590;2022-10-16T02:00:47;1.70;;;1.30;;
8737;SDS011;4405;49.272;8.590;2022-10-16T02:03:16;2.47;;;1.37;;
8737;SDS011;4405;49.272;8.590;2022-10-16T02:05:45;1.73;;;1.40;;
8737;SDS011;4405;49.272;8.590;2022-10-16T02:08:12;1.30;;;1.30;;
8737;SDS011;4405;49.272;8.590;2022-10-16T02:10:38;1.80;;;1.50;;
8737;SDS011;4405;49.272;8.590;2022-10-16T02:13:06;1.53;;;1.40;;
8737;SDS011;4405;49.272;8.590;2022-10-16T02:15:33;1.63;;;1.30;;
8737;SDS011;4405;49.272;8.590;2022-10-16T02:18:00;1.40;;;1.30;;
8737;SDS011;4405;49.272;8.590;2022-10-16T02:20:29;2.30;;;1.20;;
8737;SDS011;4405;49.272;8.590;2022-10-16T02:22:58;1.40;;;1.30;;
8737;SDS011;4405;49.272;8.590;2022-10-16T02:25:27;1.30;;;1.30;;
8737;SDS011;4405;49.272;8.590;2022-10-16T02:27:57;1.50;;;1.50;;
8737;SDS011;4405;49.272;8.590;2022-10-16T02:30:27;2.57;;;1.50;;
8737;SDS011;4405;49.272;8.590;2022-10-16T02:32:55;2.17;;;1.43;;
8737;SDS011;4405;49.272;8.590;2022-10-16T02:35:22;3.50;;;1.70;;
8737;SDS011;4405;49.272;8.590;2022-10-16T02:37:50;2.27;;;1.27;;
8737;SDS011;4405;49.272;8.590;2022-10-16T02:40:17;2.00;;;1.70;;
8737;SDS011;4405;49.272;8.590;2022-10-16T02:42:44;1.77;;;1.63;;
8737;SDS011;4405;49.272;8.590;2022-10-16T02:45:10;4.17;;;1.67;;
8737;SDS011;4405;49.272;8.590;2022-10-16T02:47:37;4.93;;;1.70;;
8737;SDS011;4405;49.272;8.590;2022-10-16T02:50:04;3.70;;;1.53;;
8737;SDS011;4405;49.272;8.590;2022-10-16T02:52:30;1.40;;;1.40;;
8737;SDS011;4405;49.272;8.590;2022-10-16T02:54:58;2.37;;;1.40;;
8737;SDS011;4405;49.272;8.590;2022-10-16T02:57:24;2.23;;;1.70;;
8737;SDS011;4405;49.272;8.590;2022-10-16T02:59:50;2.43;;;1.60;;
8737;SDS011;4405;49.272;8.590;2022-10-16T03:02:17;1.70;;;1.60;;
8737;SDS011;4405;49.272;8.590;2022-10-16T03:04:43;1.83;;;1.60;;
8737;SDS011;4405;49.272;8.590;2022-10-16T03:07:10;3.23;;;1.50;;
8737;SDS011;4405;49.272;8.590;2022-10-16T03:09:36;1.60;;;1.60;;
8737;SDS011;4405;49.272;8.590;2022-10-16T03:12:04;1.90;;;1.70;;
8737;SDS011;4405;49.272;8.590;2022-10-16T03:14:30;2.63;;;1.83;;
8737;SDS011;4405;49.272;8.590;2022-10-16T03:16:57;3.40;;;1.63;;
8737;SDS011;4405;49.272;8.590;2022-10-16T03:19:23;2.20;;;1.50;;
8737;SDS011;4405;49.272;8.590;2022-10-16T03:21:49;2.87;;;1.57;;
8737;SDS011;4405;49.272;8.590;2022-10-16T03:24:16;1.97;;;1.40;;
8737;SDS011;4405;49.272;8.590;2022-10-16T03:26:42;1.70;;;1.60;;
8737;SDS011;4405;49.272;8.590;2022-10-16T03:29:10;3.13;;;1.37;;
8737;SDS011;4405;49.272;8.590;2022-10-16T03:31:36;3.77;;;1.60;;
8737;SDS011;4405;49.272;8.590;2022-10-16T03:34:02;3.20;;;1.40;;
8737;SDS011;4405;49.272;8.590;2022-10-16T03:36:28;2.93;;;1.40;;
8737;SDS011;4405;49.272;8.590;2022-10-16T03:38:55;2.87;;;1.43;;
8737;SDS011;4405;49.272;8.590;2022-10-16T03:41:21;2.93;;;1.40;;
8737;SDS011;4405;49.272;8.590;2022-10-16T03:43:47;1.63;;;1.63;;
8737;SDS011;4405;49.272;8.590;2022-10-16T03:46:15;2.93;;;1.70;;
8737;SDS011;4405;49.272;8.590;2022-10-16T03:48:41;1.87;;;1.80;;
8737;SDS011;4405;49.272;8.590;2022-10-16T03:51:08;3.73;;;2.00;;
8737;SDS011;4405;49.272;8.590;2022-10-16T03:53:34;2.33;;;1.93;;
8737;SDS011;4405;49.272;8.590;2022-10-16T03:56:00;2.37;;;2.10;;
8737;SDS011;4405;49.272;8.590;2022-10-16T03:58:27;1.57;;;1.47;;
8737;SDS011;4405;49.272;8.590;2022-10-16T04:00:53;2.13;;;1.90;;
8737;SDS011;4405;49.272;8.590;2022-10-16T04:03:21;1.83;;;1.73;;
8737;SDS011;4405;49.272;8.590;2022-10-16T04:05:48;2.10;;;1.90;;
8737;SDS011;4405;49.272;8.590;2022-10-16T04:08:14;3.00;;;1.90;;
8737;SDS011;4405;49.272;8.590;2022-10-16T04:10:41;3.03;;;1.70;;
8737;SDS011;4405;49.272;8.590;2022-10-16T04:13:08;4.53;;;2.50;;
8737;SDS011;4405;49.272;8.590;2022-10-16T04:15:34;2.50;;;2.30;;
8737;SDS011;4405;49.272;8.590;2022-10-16T04:18:01;2.23;;;2.00;;
8737;SDS011;4405;49.272;8.590;2022-10-16T04:20:28;2.40;;;2.20;;
8737;SDS011;4405;49.272;8.590;2022-10-16T04:22:55;3.87;;;2.07;;
8737;SDS011;4405;49.272;8.590;2022-10-16T04:25:21;2.10;;;1.80;;
8737;SDS011;4405;49.272;8.590;2022-10-16T04:27:47;2.03;;;1.80;;
8737;SDS011;4405;49.272;8.590;2022-10-16T04:30:14;1.90;;;1.80;;
8737;SDS011;4405;49.272;8.590;2022-10-16T04:32:40;3.60;;;1.67;;
8737;SDS011;4405;49.272;8.590;2022-10-16T04:35:07;2.63;;;1.37;;
8737;SDS011;4405;49.272;8.590;2022-10-16T04:37:35;2.50;;;1.40;;
8737;SDS011;4405;49.272;8.590;2022-10-16T04:40:01;4.03;;;2.30;;
8737;SDS011;4405;49.272;8.590;2022-10-16T04:42:28;5.30;;;3.63;;
8737;SDS011;4405;49.272;8.590;2022-10-16T04:44:54;3.17;;;2.97;;
8737;SDS011;4405;49.272;8.590;2022-10-16T04:47:21;4.03;;;2.00;;
8737;SDS011;4405;49.272;8.590;2022-10-16T04:49:47;3.43;;;3.30;;
8737;SDS011;4405;49.272;8.590;2022-10-16T04:52:13;4.00;;;2.60;;
8737;SDS011;4405;49.272;8.590;2022-10-16T04:54:41;3.70;;;3.40;;
8737;SDS011;4405;49.272;8.590;2022-10-16T04:57:10;3.83;;;3.63;;
8737;SDS011;4405;49.272;8.590;2022-10-16T04:59:36;6.10;;;2.73;;
8737;SDS011;4405;49.272;8.590;2022-10-16T05:02:02;5.50;;;2.73;;
8737;SDS011;4405;49.272;8.590;2022-10-16T05:04:29;4.70;;;2.40;;
8737;SDS011;4405;49.272;8.590;2022-10-16T05:06:55;1.93;;;1.83;;
8737;SDS011;4405;49.272;8.590;2022-10-16T05:09:21;3.53;;;1.77;;
8737;SDS011;4405;49.272;8.590;2022-10-16T05:11:49;1.70;;;1.60;;
8737;SDS011;4405;49.272;8.590;2022-10-16T05:14:15;2.13;;;1.50;;
8737;SDS011;4405;49.272;8.590;2022-10-16T05:16:42;1.83;;;1.73;;
8737;SDS011;4405;49.272;8.590;2022-10-16T05:19:08;1.73;;;1.63;;
8737;SDS011;4405;49.272;8.590;2022-10-16T05:21:35;1.90;;;1.70;;
8737;SDS011;4405;49.272;8.590;2022-10-16T05:24:01;1.83;;;1.50;;
8737;SDS011;4405;49.272;8.590;2022-10-16T05:26:28;2.20;;;1.77;;
8737;SDS011;4405;49.272;8.590;2022-10-16T05:28:55;2.43;;;1.60;;
8737;SDS011;4405;49.272;8.590;2022-10-16T05:31:22;2.37;;;1.80;;
8737;SDS011;4405;49.272;8.590;2022-10-16T05:33:48;1.77;;;1.77;;
8737;SDS011;4405;49.272;8.590;2022-10-16T05:36:14;4.53;;;1.80;;
8737;SDS011;4405;49.272;8.590;2022-10-16T05:38:41;2.13;;;1.53;;
8737;SDS011;4405;49.272;8.590;2022-10-16T05:41:07;1.80;;;1.47;;
8737;SDS011;4405;49.272;8.590;2022-10-16T05:43:33;6.00;;;1.77;;
8737;SDS011;4405;49.272;8.590;2022-10-16T05:46:02;4.87;;;2.13;;
8737;SDS011;4405;49.272;8.590;2022-10-16T05:48:29;2.63;;;2.20;;
8737;SDS011;4405;49.272;8.590;2022-10-16T05:50:56;2.00;;;1.80;;
8737;SDS011;4405;49.272;8.590;2022-10-16T05:53:23;3.40;;;1.70;;
8737;SDS011;4405;49.272;8.590;2022-10-16T05:55:51;3.43;;;2.03;;
8737;SDS011;4405;49.272;8.590;2022-10-16T05:58:17;6.00;;;4.40;;
8737;SDS011;4405;49.272;8.590;2022-10-16T06:00:44;10.37;;;2.73;;
8737;SDS011;4405;49.272;8.590;2022-10-16T06:03:11;3.67;;;2.93;;
8737;SDS011;4405;49.272;8.590;2022-10-16T06:05:38;4.63;;;3.60;;
8737;SDS011;4405;49.272;8.590;2022-10-16T06:08:04;2.17;;;1.97;;
8737;SDS011;4405;49.272;8.590;2022-10-16T06:10:31;4.83;;;1.80;;
8737;SDS011;4405;49.272;8.590;2022-10-16T06:12:57;2.80;;;1.90;;
8737;SDS011;4405;49.272;8.590;2022-10-16T06:15:23;2.60;;;1.73;;
8737;SDS011;4405;49.272;8.590;2022-10-16T06:17:50;1.90;;;1.80;;
8737;SDS011;4405;49.272;8.590;2022-10-16T06:20:17;3.03;;;1.77;;
8737;SDS011;4405;49.272;8.590;2022-10-16T06:22:44;3.20;;;2.40;;
8737;SDS011;4405;49.272;8.590;2022-10-16T06:25:10;3.73;;;2.13;;
8737;SDS011;4405;49.272;8.590;2022-10-16T06:27:38;4.50;;;2.43;;
8737;SDS011;4405;49.272;8.590;2022-10-16T06:30:05;3.97;;;2.40;;
8737;SDS011;4405;49.272;8.590;2022-10-16T06:32:32;3.00;;;2.67;;
8737;SDS011;4405;49.272;8.590;2022-10-16T06:34:58;4.40;;;2.90;;
8737;SDS011;4405;49.272;8.590;2022-10-16T06:37:26;5.03;;;4.07;;
8737;SDS011;4405;49.272;8.590;2022-10-16T06:39:52;5.37;;;3.07;;
8737;SDS011;4405;49.272;8.590;2022-10-16T06:42:19;8.20;;;3.97;;
8737;SDS011;4405;49.272;8.590;2022-10-16T06:44:45;3.17;;;2.90;;
8737;SDS011;4405;49.272;8.590;2022-10-16T06:47:11;3.50;;;2.60;;
8737;SDS011;4405;49.272;8.590;2022-10-16T06:49:38;7.13;;;2.33;;
8737;SDS011;4405;49.272;8.590;2022-10-16T06:52:04;3.33;;;1.80;;
8737;SDS011;4405;49.272;8.590;2022-10-16T06:54:32;3.60;;;1.70;;
8737;SDS011;4405;49.272;8.590;2022-10-16T06:56:58;2.53;;;1.93;;
8737;SDS011;4405;49.272;8.590;2022-10-16T06:59:26;5.37;;;1.90;;
8737;SDS011;4405;49.272;8.590;2022-10-16T07:01:53;2.90;;;1.90;;
8737;SDS011;4405;49.272;8.590;2022-10-16T07:04:19;4.53;;;1.67;;
8737;SDS011;4405;49.272;8.590;2022-10-16T07:06:46;7.17;;;1.87;;
8737;SDS011;4405;49.272;8.590;2022-10-16T07:09:12;6.17;;;1.70;;
8737;SDS011;4405;49.272;8.590;2022-10-16T07:11:40;1.73;;;1.60;;
8737;SDS011;4405;49.272;8.590;2022-10-16T07:14:09;3.97;;;1.80;;
8737;SDS011;4405;49.272;8.590;2022-10-16T07:16:38;6.23;;;1.70;;
8737;SDS011;4405;49.272;8.590;2022-10-16T07:19:04;3.03;;;1.30;;
8737;SDS011;4405;49.272;8.590;2022-10-16T07:21:32;4.97;;;1.50;;
8737;SDS011;4405;49.272;8.590;2022-10-16T07:24:00;4.67;;;1.43;;
8737;SDS011;4405;49.272;8.590;2022-10-16T07:26:27;3.70;;;1.60;;
8737;SDS011;4405;49.272;8.590;2022-10-16T07:28:56;1.73;;;1.50;;
8737;SDS011;4405;49.272;8.590;2022-10-16T07:31:23;3.90;;;1.50;;
8737;SDS011;4405;49.272;8.590;2022-10-16T07:33:49;2.60;;;1.40;;
8737;SDS011;4405;49.272;8.590;2022-10-16T07:36:17;1.73;;;1.60;;
8737;SDS011;4405;49.272;8.590;2022-10-16T07:38:44;2.03;;;1.60;;
8737;SDS011;4405;49.272;8.590;2022-10-16T07:41:11;2.40;;;1.50;;
8737;SDS011;4405;49.272;8.590;2022-10-16T07:43:37;2.60;;;2.40;;
8737;SDS011;4405;49.272;8.590;2022-10-16T07:46:05;2.40;;;2.10;;
8737;SDS011;4405;49.272;8.590;2022-10-16T07:48:32;4.03;;;2.03;;
8737;SDS011;4405;49.272;8.590;2022-10-16T07:50:58;2.23;;;2.00;;
8737;SDS011;4405;49.272;8.590;2022-10-16T07:53:25;4.27;;;1.90;;
8737;SDS011;4405;49.272;8.590;2022-10-16T07:55:51;7.60;;;2.10;;
8737;SDS011;4405;49.272;8.590;2022-10-16T07:58:17;2.33;;;1.73;;
8737;SDS011;4405;49.272;8.590;2022-10-16T08:00:44;9.87;;;1.90;;
8737;SDS011;4405;49.272;8.590;2022-10-16T08:03:12;4.13;;;1.80;;
8737;SDS011;4405;49.272;8.590;2022-10-16T08:05:38;4.83;;;1.73;;
8737;SDS011;4405;49.272;8.590;2022-10-16T08:08:04;2.07;;;1.67;;
8737;SDS011;4405;49.272;8.590;2022-10-16T08:10:31;2.83;;;1.80;;
8737;SDS011;4405;49.272;8.590;2022-10-16T08:12:57;2.63;;;2.00;;
8737;SDS011;4405;49.272;8.590;2022-10-16T08:15:24;4.20;;;2.30;;
8737;SDS011;4405;49.272;8.590;2022-10-16T08:17:54;4.00;;;1.93;;
8737;SDS011;4405;49.272;8.590;2022-10-16T08:20:21;2.20;;;2.00;;
8737;SDS011;4405;49.272;8.590;2022-10-16T08:22:48;9.93;;;2.27;;
8737;SDS011;4405;49.272;8.590;2022-10-16T08:25:14;3.63;;;3.43;;
8737;SDS011;4405;49.272;8.590;2022-10-16T08:27:40;6.37;;;4.43;;
8737;SDS011;4405;49.272;8.590;2022-10-16T08:30:07;8.67;;;5.80;;
8737;SDS011;4405;49.272;8.590;2022-10-16T08:32:34;7.03;;;5.40;;
8737;SDS011;4405;49.272;8.590;2022-10-16T08:35:00;6.50;;;4.40;;
8737;SDS011;4405;49.272;8.590;2022-10-16T08:37:30;4.63;;;3.73;;
8737;SDS011;4405;49.272;8.590;2022-10-16T08:39:57;3.03;;;2.40;;
8737;SDS011;4405;49.272;8.590;2022-10-16T08:42:32;2.77;;;2.10;;
8737;SDS011;4405;49.272;8.590;2022-10-16T08:45:08;2.57;;;2.07;;
8737;SDS011;4405;49.272;8.590;2022-10-16T08:47:41;2.83;;;2.10;;
8737;SDS011;4405;49.272;8.590;2022-10-16T08:50:10;4.30;;;1.97;;
8737;SDS011;4405;49.272;8.590;2022-10-16T08:52:40;3.33;;;2.03;;
8737;SDS011;4405;49.272;8.590;2022-10-16T08:55:08;2.80;;;2.47;;
8737;SDS011;4405;49.272;8.590;2022-10-16T08:57:42;2.63;;;2.20;;
8737;SDS011;4405;49.272;8.590;2022-10-16T09:00:12;2.23;;;2.03;;
8737;SDS011;4405;49.272;8.590;2022-10-16T09:02:40;2.80;;;2.40;;
8737;SDS011;4405;49.272;8.590;2022-10-16T09:05:16;2.10;;;1.90;;
8737;SDS011;4405;49.272;8.590;2022-10-16T09:07:46;3.60;;;2.27;;
8737;SDS011;4405;49.272;8.590;2022-10-16T09:10:19;4.50;;;2.13;;
8737;SDS011;4405;49.272;8.590;2022-10-16T09:12:49;3.50;;;2.10;;
8737;SDS011;4405;49.272;8.590;2022-10-16T09:15:21;1.77;;;1.60;;
8737;SDS011;4405;49.272;8.590;2022-10-16T09:17:51;1.80;;;1.70;;
8737;SDS011;4405;49.272;8.590;2022-10-16T09:23:17;3.80;;;1.70;;
8737;SDS011;4405;49.272;8.590;2022-10-16T09:25:45;1.50;;;1.40;;
8737;SDS011;4405;49.272;8.590;2022-10-16T09:28:12;1.37;;;1.37;;
8737;SDS011;4405;49.272;8.590;2022-10-16T09:30:39;2.80;;;1.43;;
8737;SDS011;4405;49.272;8.590;2022-10-16T09:33:06;2.67;;;1.47;;
8737;SDS011;4405;49.272;8.590;2022-10-16T09:35:37;2.40;;;1.50;;
8737;SDS011;4405;49.272;8.590;2022-10-16T09:38:03;2.83;;;1.47;;
8737;SDS011;4405;49.272;8.590;2022-10-16T09:40:32;4.37;;;1.40;;
8737;SDS011;4405;49.272;8.590;2022-10-16T09:43:01;4.30;;;1.53;;
8737;SDS011;4405;49.272;8.590;2022-10-16T09:45:28;2.30;;;1.50;;
8737;SDS011;4405;49.272;8.590;2022-10-16T09:47:55;3.87;;;1.50;;
8737;SDS011;4405;49.272;8.590;2022-10-16T09:50:22;2.00;;;1.40;;
8737;SDS011;4405;49.272;8.590;2022-10-16T09:52:50;3.27;;;1.60;;
8737;SDS011;4405;49.272;8.590;2022-10-16T09:55:16;2.63;;;1.53;;
8737;SDS011;4405;49.272;8.590;2022-10-16T09:57:49;4.13;;;2.00;;
8737;SDS011;4405;49.272;8.590;2022-10-16T10:00:16;1.57;;;1.50;;
8737;SDS011;4405;49.272;8.590;2022-10-16T10:02:42;1.70;;;1.60;;
8737;SDS011;4405;49.272;8.590;2022-10-16T10:05:17;6.73;;;1.73;;
8737;SDS011;4405;49.272;8.590;2022-10-16T10:07:44;3.00;;;1.50;;
8737;SDS011;4405;49.272;8.590;2022-10-16T10:10:18;5.47;;;1.50;;
8737;SDS011;4405;49.272;8.590;2022-10-16T10:12:45;2.87;;;1.43;;
8737;SDS011;4405;49.272;8.590;2022-10-16T10:15:13;1.60;;;1.50;;
8737;SDS011;4405;49.272;8.590;2022-10-16T10:17:45;4.53;;;1.50;;
8737;SDS011;4405;49.272;8.590;2022-10-16T10:20:18;4.40;;;1.50;;
8737;SDS011;4405;49.272;8.590;2022-10-16T10:22:47;2.60;;;1.50;;
8737;SDS011;4405;49.272;8.590;2022-10-16T10:30:39;5.77;;;1.70;;
8737;SDS011;4405;49.272;8.590;2022-10-16T10:33:17;2.70;;;1.77;;
8737;SDS011;4405;49.272;8.590;2022-10-16T10:35:45;4.87;;;2.33;;
8737;SDS011;4405;49.272;8.590;2022-10-16T10:38:19;5.07;;;2.97;;
8737;SDS011;4405;49.272;8.590;2022-10-16T10:40:48;1.80;;;1.60;;
8737;SDS011;4405;49.272;8.590;2022-10-16T10:43:19;4.40;;;1.77;;
8737;SDS011;4405;49.272;8.590;2022-10-16T10:45:51;2.00;;;1.70;;
8737;SDS011;4405;49.272;8.590;2022-10-16T10:48:24;2.87;;;1.63;;
8737;SDS011;4405;49.272;8.590;2022-10-16T10:50:54;1.40;;;1.40;;
8737;SDS011;4405;49.272;8.590;2022-10-16T10:53:25;3.97;;;1.60;;
8737;SDS011;4405;49.272;8.590;2022-10-16T10:55:58;1.57;;;1.37;;
8737;SDS011;4405;49.272;8.590;2022-10-16T11:01:13;1.70;;;1.50;;
8737;SDS011;4405;49.272;8.590;2022-10-16T11:03:42;5.10;;;1.67;;
8737;SDS011;4405;49.272;8.590;2022-10-16T11:06:12;5.10;;;1.50;;
8737;SDS011;4405;49.272;8.590;2022-10-16T11:08:42;1.63;;;1.37;;
8737;SDS011;4405;49.272;8.590;2022-10-16T11:11:11;1.80;;;1.40;;
8737;SDS011;4405;49.272;8.590;2022-10-16T11:13:42;2.13;;;1.60;;
8737;SDS011;4405;49.272;8.590;2022-10-16T11:16:11;2.33;;;1.50;;
8737;SDS011;4405;49.272;8.590;2022-10-16T11:18:42;1.60;;;1.50;;
8737;SDS011;4405;49.272;8.590;2022-10-16T11:21:11;3.17;;;1.60;;
8737;SDS011;4405;49.272;8.590;2022-10-16T11:23:41;1.60;;;1.50;;
8737;SDS011;4405;49.272;8.590;2022-10-16T11:26:11;1.83;;;1.40;;
8737;SDS011;4405;49.272;8.590;2022-10-16T11:28:40;2.97;;;1.57;;
8737;SDS011;4405;49.272;8.590;2022-10-16T11:31:10;1.50;;;1.40;;
8737;SDS011;4405;49.272;8.590;2022-10-16T11:33:37;1.90;;;1.47;;
8737;SDS011;4405;49.272;8.590;2022-10-16T11:36:08;2.40;;;1.80;;
8737;SDS011;4405;49.272;8.590;2022-10-16T11:38:38;3.83;;;1.73;;
8737;SDS011;4405;49.272;8.590;2022-10-16T11:41:15;3.03;;;1.70;;
8737;SDS011;4405;49.272;8.590;2022-10-16T11:43:45;2.13;;;1.90;;
8737;SDS011;4405;49.272;8.590;2022-10-16T11:46:16;6.13;;;1.73;;
8737;SDS011;4405;49.272;8.590;2022-10-16T11:48:45;2.70;;;1.53;;
8737;SDS011;4405;49.272;8.590;2022-10-16T11:51:16;4.73;;;1.80;;
8737;SDS011;4405;49.272;8.590;2022-10-16T11:53:45;5.27;;;1.80;;
8737;SDS011;4405;49.272;8.590;2022-10-16T11:56:12;5.70;;;1.60;;
8737;SDS011;4405;49.272;8.590;2022-10-16T11:58:41;3.13;;;1.80;;
8737;SDS011;4405;49.272;8.590;2022-10-16T12:01:13;2.83;;;1.50;;
8737;SDS011;4405;49.272;8.590;2022-10-16T12:03:42;3.57;;;1.53;;
8737;SDS011;4405;49.272;8.590;2022-10-16T12:06:13;1.53;;;1.43;;
8737;SDS011;4405;49.272;8.590;2022-10-16T12:08:44;3.63;;;1.70;;
8737;SDS011;4405;49.272;8.590;2022-10-16T12:11:20;2.47;;;1.57;;
8737;SDS011;4405;49.272;8.590;2022-10-16T12:13:48;2.20;;;1.70;;
8737;SDS011;4405;49.272;8.590;2022-10-16T12:16:20;3.30;;;1.67;;
8737;SDS011;4405;49.272;8.590;2022-10-16T12:18:47;2.57;;;1.83;;
8737;SDS011;4405;49.272;8.590;2022-10-16T12:21:14;2.47;;;1.37;;
8737;SDS011;4405;49.272;8.590;2022-10-16T12:23:48;4.30;;;1.73;;
8737;SDS011;4405;49.272;8.590;2022-10-16T12:26:15;7.20;;;1.80;;
8737;SDS011;4405;49.272;8.590;2022-10-16T12:28:49;4.10;;;1.83;;
8737;SDS011;4405;49.272;8.590;2022-10-16T12:31:16;6.33;;;1.60;;
8737;SDS011;4405;49.272;8.590;2022-10-16T12:33:53;1.83;;;1.70;;
8737;SDS011;4405;49.272;8.590;2022-10-16T12:36:26;3.43;;;1.90;;
8737;SDS011;4405;49.272;8.590;2022-10-16T12:38:54;2.83;;;1.60;;
8737;SDS011;4405;49.272;8.590;2022-10-16T12:41:24;1.50;;;1.50;;
8737;SDS011;4405;49.272;8.590;2022-10-16T12:43:51;2.00;;;1.80;;
8737;SDS011;4405;49.272;8.590;2022-10-16T12:46:22;2.90;;;1.90;;
8737;SDS011;4405;49.272;8.590;2022-10-16T12:48:49;5.40;;;1.60;;
8737;SDS011;4405;49.272;8.590;2022-10-16T12:51:21;2.30;;;2.20;;
8737;SDS011;4405;49.272;8.590;2022-10-16T12:53:58;1.50;;;1.40;;
8737;SDS011;4405;49.272;8.590;2022-10-16T12:56:26;5.17;;;1.60;;
8737;SDS011;4405;49.272;8.590;2022-10-16T12:59:03;5.33;;;1.90;;
8737;SDS011;4405;49.272;8.590;2022-10-16T13:01:36;3.00;;;1.83;;
8737;SDS011;4405;49.272;8.590;2022-10-16T13:04:10;5.77;;;1.80;;
8737;SDS011;4405;49.272;8.590;2022-10-16T13:06:42;1.80;;;1.63;;
8737;SDS011;4405;49.272;8.590;2022-10-16T13:09:22;5.37;;;1.90;;
8737;SDS011;4405;49.272;8.590;2022-10-16T13:11:57;3.03;;;1.70;;
8737;SDS011;4405;49.272;8.590;2022-10-16T13:14:30;2.40;;;1.70;;
8737;SDS011;4405;49.272;8.590;2022-10-16T13:17:01;1.53;;;1.50;;
8737;SDS011;4405;49.272;8.590;2022-10-16T13:19:32;3.67;;;1.97;;
8737;SDS011;4405;49.272;8.590;2022-10-16T13:22:03;3.23;;;1.80;;
8737;SDS011;4405;49.272;8.590;2022-10-16T13:24:39;3.87;;;1.97;;
8737;SDS011;4405;49.272;8.590;2022-10-16T13:27:09;3.60;;;1.97;;
8737;SDS011;4405;49.272;8.590;2022-10-16T13:29:38;4.30;;;2.00;;
8737;SDS011;4405;49.272;8.590;2022-10-16T13:32:06;6.03;;;2.00;;
8737;SDS011;4405;49.272;8.590;2022-10-16T13:34:41;5.10;;;2.37;;
8737;SDS011;4405;49.272;8.590;2022-10-16T13:37:15;6.17;;;1.97;;
8737;SDS011;4405;49.272;8.590;2022-10-16T13:39:44;3.97;;;1.80;;
8737;SDS011;4405;49.272;8.590;2022-10-16T13:42:12;2.20;;;1.60;;
8737;SDS011;4405;49.272;8.590;2022-10-16T13:44:40;1.60;;;1.60;;
8737;SDS011;4405;49.272;8.590;2022-10-16T13:47:12;4.30;;;1.90;;
8737;SDS011;4405;49.272;8.590;2022-10-16T13:49:41;8.17;;;3.07;;
8737;SDS011;4405;49.272;8.590;2022-10-16T13:52:15;2.93;;;1.77;;
8737;SDS011;4405;49.272;8.590;2022-10-16T13:54:44;1.90;;;1.80;;
8737;SDS011;4405;49.272;8.590;2022-10-16T13:57:11;5.10;;;1.80;;
8737;SDS011;4405;49.272;8.590;2022-10-16T13:59:38;3.07;;;1.70;;
8737;SDS011;4405;49.272;8.590;2022-10-16T14:02:05;1.80;;;1.80;;
8737;SDS011;4405;49.272;8.590;2022-10-16T14:04:35;3.93;;;2.00;;
8737;SDS011;4405;49.272;8.590;2022-10-16T14:07:04;1.80;;;1.70;;
8737;SDS011;4405;49.272;8.590;2022-10-16T14:09:30;1.87;;;1.80;;
8737;SDS011;4405;49.272;8.590;2022-10-16T14:11:59;6.23;;;2.10;;
8737;SDS011;4405;49.272;8.590;2022-10-16T14:14:27;5.80;;;3.20;;
8737;SDS011;4405;49.272;8.590;2022-10-16T14:16:55;7.33;;;6.60;;
8737;SDS011;4405;49.272;8.590;2022-10-16T14:19:22;3.30;;;2.37;;
8737;SDS011;4405;49.272;8.590;2022-10-16T14:21:50;7.70;;;2.53;;
8737;SDS011;4405;49.272;8.590;2022-10-16T14:24:24;3.53;;;2.20;;
8737;SDS011;4405;49.272;8.590;2022-10-16T14:26:51;6.83;;;2.13;;
8737;SDS011;4405;49.272;8.590;2022-10-16T14:29:21;2.17;;;1.97;;
8737;SDS011;4405;49.272;8.590;2022-10-16T14:31:54;4.90;;;1.90;;
8737;SDS011;4405;49.272;8.590;2022-10-16T14:34:28;4.83;;;1.80;;
8737;SDS011;4405;49.272;8.590;2022-10-16T14:36:55;6.03;;;1.60;;
8737;SDS011;4405;49.272;8.590;2022-10-16T14:39:22;1.63;;;1.60;;
8737;SDS011;4405;49.272;8.590;2022-10-16T14:41:49;2.10;;;1.63;;
8737;SDS011;4405;49.272;8.590;2022-10-16T14:44:17;2.53;;;1.70;;
8737;SDS011;4405;49.272;8.590;2022-10-16T14:46:45;3.23;;;2.10;;
8737;SDS011;4405;49.272;8.590;2022-10-16T14:49:15;2.40;;;2.20;;
8737;SDS011;4405;49.272;8.590;2022-10-16T14:51:43;3.03;;;2.93;;
8737;SDS011;4405;49.272;8.590;2022-10-16T14:54:11;3.50;;;3.20;;
8737;SDS011;4405;49.272;8.590;2022-10-16T14:56:42;3.40;;;3.10;;
8737;SDS011;4405;49.272;8.590;2022-10-16T14:59:09;3.33;;;3.03;;
8737;SDS011;4405;49.272;8.590;2022-10-16T15:01:39;5.47;;;2.83;;
8737;SDS011;4405;49.272;8.590;2022-10-16T15:04:08;5.60;;;2.73;;
8737;SDS011;4405;49.272;8.590;2022-10-16T15:06:35;6.07;;;2.70;;
8737;SDS011;4405;49.272;8.590;2022-10-16T15:09:01;2.50;;;2.40;;
8737;SDS011;4405;49.272;8.590;2022-10-16T15:11:28;5.70;;;2.50;;
8737;SDS011;4405;49.272;8.590;2022-10-16T15:13:54;3.07;;;2.10;;
8737;SDS011;4405;49.272;8.590;2022-10-16T15:16:20;3.10;;;2.50;;
8737;SDS011;4405;49.272;8.590;2022-10-16T15:18:47;2.40;;;2.20;;
8737;SDS011;4405;49.272;8.590;2022-10-16T15:21:17;3.37;;;2.77;;
8737;SDS011;4405;49.272;8.590;2022-10-16T15:23:48;4.07;;;3.20;;
8737;SDS011;4405;49.272;8.590;2022-10-16T15:26:14;3.80;;;3.60;;
8737;SDS011;4405;49.272;8.590;2022-10-16T15:28:40;4.67;;;3.53;;
8737;SDS011;4405;49.272;8.590;2022-10-16T15:31:07;4.97;;;3.27;;
8737;SDS011;4405;49.272;8.590;2022-10-16T15:33:33;4.40;;;3.70;;